createdAt,value
2017-12-17T00:02:28.452Z,0
2017-12-17T00:19:17.507Z,0
2017-12-17T00:30:12.016Z,0
2017-12-17T00:30:55.022Z,0
2017-12-17T00:31:34.618Z,0
2017-12-17T00:32:17.856Z,0
2017-12-17T00:32:58.125Z,0
2017-12-17T00:33:40.285Z,0
2017-12-17T00:34:20.991Z,0
2017-12-17T00:35:04.550Z,0
2017-12-17T00:35:45.513Z,0
2017-12-17T00:36:28.421Z,0
2017-12-17T00:37:10.307Z,0
2017-12-17T00:37:52.355Z,0
2017-12-17T00:38:34.002Z,0
2017-12-17T00:39:15.740Z,0
2017-12-17T00:39:55.283Z,0
2017-12-17T00:40:37.007Z,0
2017-12-17T00:41:17.719Z,0
2017-12-17T00:42:04.157Z,0
2017-12-17T00:42:43.788Z,0
2017-12-17T00:43:25.038Z,0
2017-12-17T00:44:06.322Z,0
2017-12-17T00:44:47.907Z,0
2017-12-17T00:45:28.730Z,0
2017-12-17T00:46:09.532Z,0
2017-12-17T00:46:50.117Z,0
2017-12-17T00:47:30.847Z,0
2017-12-17T00:48:11.272Z,0
2017-12-17T00:48:52.221Z,0
2017-12-17T00:49:33.023Z,0
2017-12-17T00:50:13.513Z,0
2017-12-17T00:50:55.380Z,0
2017-12-17T01:00:22.732Z,0
2017-12-17T01:10:08.553Z,0
2017-12-17T01:14:53.138Z,0
2017-12-17T01:16:59.054Z,0
2017-12-17T01:24:28.311Z,0
2017-12-17T01:25:20.424Z,0
2017-12-17T01:26:12.816Z,0
2017-12-17T01:27:05.833Z,0
2017-12-17T01:27:57.012Z,0
2017-12-17T01:52:37.068Z,0
2017-12-17T02:01:15.427Z,0
2017-12-17T02:01:58.228Z,0
2017-12-17T02:02:39.027Z,0
2017-12-17T02:03:19.813Z,0
2017-12-17T02:04:01.784Z,0
2017-12-17T02:08:28.762Z,0
2017-12-17T02:21:15.705Z,0
2017-12-17T02:30:30.871Z,0
2017-12-17T02:34:46.099Z,0
2017-12-17T02:41:04.078Z,0
2017-12-17T02:41:47.134Z,0
2017-12-17T02:42:27.822Z,0
2017-12-17T02:43:08.267Z,0
2017-12-17T02:43:50.586Z,0
2017-12-17T02:44:30.697Z,0
2017-12-17T02:52:36.364Z,0
2017-12-17T02:53:20.645Z,0
2017-12-17T02:54:01.865Z,0
2017-12-17T02:54:42.946Z,0
2017-12-17T02:55:24.075Z,0
2017-12-17T02:56:04.870Z,0
2017-12-17T02:56:45.639Z,0
2017-12-17T02:57:26.544Z,0
2017-12-17T02:58:08.036Z,0
2017-12-17T02:58:48.374Z,0
2017-12-17T02:59:28.874Z,0
2017-12-17T03:00:10.549Z,0
2017-12-17T03:00:51.235Z,0
2017-12-17T03:01:32.082Z,0
2017-12-17T03:02:13.238Z,0
2017-12-17T03:02:53.604Z,0
2017-12-17T03:03:40.128Z,0
2017-12-17T03:04:20.188Z,0
2017-12-17T03:05:00.800Z,0
2017-12-17T03:06:25.169Z,0
2017-12-17T03:07:10.692Z,0
2017-12-17T03:07:51.016Z,0
2017-12-17T03:08:31.747Z,0
2017-12-17T03:09:12.460Z,0
2017-12-17T03:09:53.849Z,0
2017-12-17T03:10:34.621Z,0
2017-12-17T03:11:15.069Z,0
2017-12-17T03:11:55.501Z,0
2017-12-17T03:12:37.128Z,0
2017-12-17T03:13:18.246Z,0
2017-12-17T03:13:59.320Z,0
2017-12-17T03:14:43.380Z,0
2017-12-17T03:15:24.801Z,0
2017-12-17T03:16:06.193Z,0
2017-12-17T03:16:46.800Z,0
2017-12-17T03:17:27.853Z,0
2017-12-17T03:18:08.315Z,0
2017-12-17T03:18:48.781Z,0
2017-12-17T03:19:30.939Z,0
2017-12-17T03:20:11.524Z,0
2017-12-17T03:20:51.991Z,0
2017-12-17T03:21:34.029Z,0
2017-12-17T03:22:14.612Z,0
2017-12-17T03:22:55.354Z,0
2017-12-17T03:23:35.856Z,0
2017-12-17T03:24:17.357Z,0
2017-12-17T03:24:58.083Z,0
2017-12-17T03:25:39.798Z,0
2017-12-17T03:26:20.193Z,0
2017-12-17T03:27:02.379Z,0
2017-12-17T03:27:42.613Z,0
2017-12-17T03:28:23.794Z,0
2017-12-17T03:29:04.219Z,0
2017-12-17T03:29:44.751Z,0
2017-12-17T03:30:27.825Z,0
2017-12-17T03:31:08.316Z,0
2017-12-17T03:31:49.501Z,0
2017-12-17T03:32:30.475Z,0
2017-12-17T03:33:11.099Z,0
2017-12-17T03:33:52.063Z,0
2017-12-17T03:34:34.097Z,0
2017-12-17T03:35:14.510Z,0
2017-12-17T03:35:55.263Z,0
2017-12-17T03:36:37.157Z,0
2017-12-17T03:37:18.319Z,0
2017-12-17T03:37:58.496Z,0
2017-12-17T03:38:38.957Z,0
2017-12-17T03:39:19.822Z,0
2017-12-17T03:40:00.651Z,0
2017-12-17T03:40:42.511Z,0
2017-12-17T03:41:24.046Z,0
2017-12-17T03:42:05.906Z,0
2017-12-17T03:42:46.424Z,0
2017-12-17T03:43:29.119Z,0
2017-12-17T03:44:09.607Z,0
2017-12-17T03:44:50.107Z,0
2017-12-17T03:45:31.459Z,0
2017-12-17T03:46:12.355Z,0
2017-12-17T03:46:53.526Z,0
2017-12-17T03:57:01.944Z,0
2017-12-17T03:59:05.994Z,0
2017-12-17T04:01:12.840Z,0
2017-12-17T04:03:18.737Z,0
2017-12-17T04:41:33.112Z,0
2017-12-17T04:43:58.264Z,0
2017-12-17T04:46:40.373Z,0
2017-12-17T04:48:42.255Z,0
2017-12-17T04:51:24.319Z,0
2017-12-17T04:52:08.821Z,0
2017-12-17T04:52:52.182Z,0
2017-12-17T04:53:32.978Z,0
2017-12-17T04:54:13.423Z,0
2017-12-17T04:54:54.650Z,0
2017-12-17T04:55:35.227Z,0
2017-12-17T04:56:15.586Z,0
2017-12-17T04:56:56.029Z,0
2017-12-17T04:57:36.429Z,0
2017-12-17T04:58:16.897Z,0
2017-12-17T04:58:57.540Z,0
2017-12-17T04:59:41.329Z,0
2017-12-17T05:00:22.215Z,0
2017-12-17T05:01:02.784Z,0
2017-12-17T05:01:43.153Z,0
2017-12-17T05:02:23.530Z,0
2017-12-17T05:03:03.917Z,0
2017-12-17T05:03:44.679Z,0
2017-12-17T05:04:25.086Z,0
2017-12-17T05:05:05.449Z,0
2017-12-17T05:05:45.881Z,0
2017-12-17T05:06:26.254Z,0
2017-12-17T05:07:06.995Z,0
2017-12-17T05:07:47.602Z,0
2017-12-17T05:08:28.559Z,0
2017-12-17T05:09:08.980Z,0
2017-12-17T05:09:49.385Z,0
2017-12-17T05:10:29.872Z,0
2017-12-17T05:11:10.497Z,0
2017-12-17T05:11:50.725Z,0
2017-12-17T05:12:31.329Z,0
2017-12-17T05:13:11.978Z,0
2017-12-17T05:13:52.811Z,0
2017-12-17T05:14:32.823Z,0
2017-12-17T05:15:13.454Z,0
2017-12-17T05:15:54.009Z,0
2017-12-17T05:16:34.620Z,0
2017-12-17T05:17:15.916Z,0
2017-12-17T05:17:56.647Z,0
2017-12-17T05:18:37.086Z,0
2017-12-17T05:19:17.927Z,0
2017-12-17T05:19:59.563Z,0
2017-12-17T05:20:39.756Z,0
2017-12-17T05:21:22.719Z,0
2017-12-17T05:22:03.429Z,0
2017-12-17T05:22:45.411Z,0
2017-12-17T05:23:26.245Z,0
2017-12-17T05:24:06.774Z,0
2017-12-17T05:24:47.177Z,0
2017-12-17T05:25:27.774Z,0
2017-12-17T05:26:08.374Z,0
2017-12-17T05:26:49.062Z,0
2017-12-17T05:27:30.570Z,0
2017-12-17T05:28:11.099Z,0
2017-12-17T05:28:51.992Z,0
2017-12-17T05:29:32.252Z,0
2017-12-17T05:30:13.076Z,0
2017-12-17T05:30:54.006Z,0
2017-12-17T05:31:35.007Z,0
2017-12-17T05:32:15.672Z,0
2017-12-17T05:32:56.996Z,0
2017-12-17T05:33:37.806Z,0
2017-12-17T05:34:21.435Z,0
2017-12-17T05:35:05.092Z,0
2017-12-17T05:41:49.675Z,0
2017-12-17T05:42:40.749Z,0
2017-12-17T05:45:21.409Z,0
2017-12-17T05:56:53.512Z,0
2017-12-17T05:58:54.918Z,0
2017-12-17T05:59:45.280Z,0
2017-12-17T06:00:35.109Z,0
2017-12-17T06:01:21.049Z,0
2017-12-17T06:02:00.827Z,0
2017-12-17T06:02:41.315Z,0
2017-12-17T06:03:21.676Z,0
2017-12-17T06:04:02.094Z,0
2017-12-17T06:04:43.946Z,0
2017-12-17T06:05:24.444Z,0
2017-12-17T06:06:05.228Z,0
2017-12-17T06:06:49.852Z,0
2017-12-17T06:07:30.383Z,0
2017-12-17T06:08:10.776Z,0
2017-12-17T06:08:51.400Z,0
2017-12-17T06:09:32.499Z,0
2017-12-17T06:10:14.953Z,0
2017-12-17T06:11:02.176Z,0
2017-12-17T06:11:43.793Z,0
2017-12-17T06:12:23.145Z,0
2017-12-17T06:13:03.479Z,0
2017-12-17T06:13:44.037Z,0
2017-12-17T06:14:24.955Z,0
2017-12-17T06:25:14.280Z,0
2017-12-17T06:26:04.438Z,0
2017-12-17T06:30:30.638Z,0
2017-12-17T06:31:58.328Z,0
2017-12-17T06:32:43.713Z,0
2017-12-17T06:33:24.394Z,0
2017-12-17T06:34:05.502Z,0
2017-12-17T06:34:46.788Z,0
2017-12-17T06:35:27.107Z,0
2017-12-17T06:36:07.989Z,0
2017-12-17T06:36:48.761Z,0
2017-12-17T06:37:29.183Z,0
2017-12-17T06:38:11.009Z,0
2017-12-17T06:42:18.666Z,0
2017-12-17T06:44:59.592Z,0
2017-12-17T06:47:38.623Z,0
2017-12-17T06:54:10.078Z,0
2017-12-17T06:55:51.039Z,0
2017-12-17T06:56:32.144Z,0
2017-12-17T06:57:13.442Z,0
2017-12-17T06:57:53.821Z,0
2017-12-17T06:58:34.425Z,0
2017-12-17T06:59:14.668Z,0
2017-12-17T06:59:55.862Z,0
2017-12-17T07:00:35.881Z,0
2017-12-17T07:01:16.547Z,0
2017-12-17T07:01:57.755Z,0
2017-12-17T07:02:39.873Z,0
2017-12-17T07:03:20.507Z,0
2017-12-17T07:04:00.847Z,0
2017-12-17T07:04:42.092Z,0
2017-12-17T07:05:22.748Z,4
2017-12-17T07:06:03.124Z,4
2017-12-17T07:06:43.899Z,4
2017-12-17T07:07:24.268Z,4
2017-12-17T07:08:04.640Z,4
2017-12-17T07:08:45.933Z,0
2017-12-17T07:09:26.453Z,0
2017-12-17T07:10:06.792Z,0
2017-12-17T07:10:47.136Z,4
2017-12-17T07:11:27.557Z,4
2017-12-17T07:12:10.358Z,4
2017-12-17T07:12:51.075Z,4
2017-12-17T07:13:31.440Z,0
2017-12-17T07:14:11.878Z,0
2017-12-17T07:14:52.219Z,0
2017-12-17T07:15:32.626Z,4
2017-12-17T07:16:13.041Z,4
2017-12-17T07:16:53.405Z,8
2017-12-17T07:17:33.865Z,4
2017-12-17T07:18:14.234Z,8
2017-12-17T07:18:54.620Z,8
2017-12-17T07:19:35.030Z,8
2017-12-17T07:20:15.406Z,8
2017-12-17T07:20:55.779Z,8
2017-12-17T07:21:36.239Z,12
2017-12-17T07:22:16.554Z,8
2017-12-17T07:22:56.944Z,8
2017-12-17T07:23:37.384Z,12
2017-12-17T07:24:20.427Z,12
2017-12-17T07:25:00.703Z,8
2017-12-17T07:25:41.594Z,8
2017-12-17T07:26:24.470Z,8
2017-12-17T07:27:07.377Z,12
2017-12-17T07:27:48.551Z,12
2017-12-17T07:28:28.978Z,16
2017-12-17T07:29:10.884Z,16
2017-12-17T07:29:51.317Z,12
2017-12-17T07:30:31.766Z,12
2017-12-17T07:31:12.083Z,12
2017-12-17T07:31:52.480Z,12
2017-12-17T07:32:32.874Z,12
2017-12-17T07:33:13.290Z,16
2017-12-17T07:37:14.249Z,16
2017-12-17T07:38:55.153Z,16
2017-12-17T07:40:56.208Z,16
2017-12-17T07:41:46.571Z,20
2017-12-17T07:43:26.073Z,20
2017-12-17T07:44:18.235Z,24
2017-12-17T07:48:22.551Z,28
2017-12-17T07:54:15.705Z,32
2017-12-17T07:56:18.987Z,40
2017-12-17T07:57:08.450Z,40
2017-12-17T07:57:56.483Z,48
2017-12-17T08:04:08.203Z,48
2017-12-17T08:08:36.539Z,56
2017-12-17T08:12:34.716Z,72
2017-12-17T08:13:22.767Z,68
2017-12-17T08:14:01.409Z,68
2017-12-17T08:14:43.226Z,72
2017-12-17T08:15:23.714Z,76
2017-12-17T08:16:05.443Z,84
2017-12-17T08:16:46.826Z,88
2017-12-17T08:17:28.460Z,92
2017-12-17T08:18:08.801Z,100
2017-12-17T08:18:49.700Z,104
2017-12-17T08:19:30.171Z,104
2017-12-17T08:20:10.664Z,112
2017-12-17T08:20:57.672Z,108
2017-12-17T08:21:34.139Z,108
2017-12-17T08:22:15.032Z,108
2017-12-17T08:22:57.006Z,112
2017-12-17T08:23:40.068Z,108
2017-12-17T08:24:21.589Z,108
2017-12-17T08:25:02.953Z,116
2017-12-17T08:25:43.842Z,116
2017-12-17T08:26:24.837Z,132
2017-12-17T08:27:07.831Z,132
2017-12-17T08:27:50.518Z,124
2017-12-17T08:28:30.931Z,120
2017-12-17T08:29:11.242Z,128
2017-12-17T08:29:52.135Z,124
2017-12-17T08:30:33.280Z,124
2017-12-17T08:31:14.577Z,132
2017-12-17T08:32:03.638Z,132
2017-12-17T08:32:44.225Z,132
2017-12-17T08:33:26.530Z,132
2017-12-17T08:34:07.033Z,140
2017-12-17T08:34:48.736Z,156
2017-12-17T08:35:29.625Z,164
2017-12-17T08:36:09.895Z,184
2017-12-17T08:36:50.971Z,180
2017-12-17T08:37:30.965Z,184
2017-12-17T08:38:13.472Z,192
2017-12-17T08:38:55.103Z,212
2017-12-17T08:39:36.362Z,212
2017-12-17T08:40:17.305Z,212
2017-12-17T08:40:59.220Z,224
2017-12-17T08:41:40.022Z,240
2017-12-17T08:42:20.553Z,228
2017-12-17T08:43:01.025Z,224
2017-12-17T08:43:41.989Z,224
2017-12-17T08:44:24.413Z,240
2017-12-17T08:45:05.017Z,216
2017-12-17T08:45:45.697Z,216
2017-12-17T08:46:27.788Z,216
2017-12-17T08:47:08.723Z,228
2017-12-17T08:47:50.061Z,232
2017-12-17T08:48:30.152Z,268
2017-12-17T08:49:11.046Z,296
2017-12-17T08:49:53.199Z,292
2017-12-17T08:50:32.126Z,312
2017-12-17T08:51:13.046Z,304
2017-12-17T08:51:53.361Z,332
2017-12-17T08:52:34.658Z,368
2017-12-17T08:53:15.805Z,360
2017-12-17T08:54:01.416Z,368
2017-12-17T08:54:42.360Z,360
2017-12-17T08:55:23.178Z,376
2017-12-17T09:05:10.210Z,404
2017-12-17T09:05:51.459Z,436
2017-12-17T09:06:32.282Z,424
2017-12-17T09:07:13.009Z,416
2017-12-17T09:07:53.398Z,412
2017-12-17T09:08:35.573Z,440
2017-12-17T09:09:22.028Z,416
2017-12-17T09:10:01.422Z,448
2017-12-17T09:10:41.754Z,464
2017-12-17T09:11:22.186Z,484
2017-12-17T09:12:02.627Z,536
2017-12-17T09:12:44.408Z,564
2017-12-17T09:13:24.931Z,564
2017-12-17T09:14:05.929Z,536
2017-12-17T09:14:46.271Z,512
2017-12-17T09:15:29.287Z,492
2017-12-17T09:16:09.477Z,492
2017-12-17T09:16:51.911Z,512
2017-12-17T09:17:32.398Z,600
2017-12-17T09:18:12.722Z,508
2017-12-17T09:18:53.095Z,508
2017-12-17T09:19:33.433Z,508
2017-12-17T09:20:14.763Z,552
2017-12-17T09:20:55.511Z,576
2017-12-17T09:21:36.734Z,568
2017-12-17T09:22:18.604Z,540
2017-12-17T09:23:02.352Z,600
2017-12-17T09:23:42.845Z,632
2017-12-17T09:24:24.367Z,592
2017-12-17T09:25:07.753Z,636
2017-12-17T09:25:47.933Z,692
2017-12-17T09:26:33.019Z,736
2017-12-17T09:27:13.246Z,696
2017-12-17T09:27:54.934Z,644
2017-12-17T09:28:35.021Z,692
2017-12-17T09:29:15.419Z,788
2017-12-17T09:29:59.586Z,700
2017-12-17T09:30:40.629Z,592
2017-12-17T09:31:22.388Z,608
2017-12-17T09:32:02.771Z,524
2017-12-17T09:32:44.162Z,484
2017-12-17T09:33:24.182Z,496
2017-12-17T09:34:04.849Z,512
2017-12-17T09:34:45.428Z,524
2017-12-17T09:35:26.974Z,476
2017-12-17T09:36:07.861Z,448
2017-12-17T09:36:48.169Z,528
2017-12-17T09:37:29.533Z,632
2017-12-17T09:38:09.890Z,728
2017-12-17T09:38:52.424Z,664
2017-12-17T09:39:32.908Z,716
2017-12-17T09:40:14.291Z,780
2017-12-17T09:40:55.144Z,716
2017-12-17T09:41:35.758Z,752
2017-12-17T09:42:16.151Z,836
2017-12-17T09:42:57.992Z,936
2017-12-17T09:43:38.359Z,1000
2017-12-17T09:44:20.405Z,852
2017-12-17T09:45:00.253Z,704
2017-12-17T09:45:39.962Z,704
2017-12-17T09:46:20.340Z,724
2017-12-17T09:47:01.244Z,712
2017-12-17T09:47:41.951Z,740
2017-12-17T09:48:22.373Z,820
2017-12-17T09:49:02.881Z,780
2017-12-17T09:49:43.261Z,716
2017-12-17T09:50:23.618Z,696
2017-12-17T09:51:04.878Z,636
2017-12-17T09:51:45.030Z,568
2017-12-17T09:52:25.658Z,576
2017-12-17T09:53:06.018Z,592
2017-12-17T09:53:46.850Z,700
2017-12-17T09:54:29.703Z,676
2017-12-17T09:55:09.008Z,704
2017-12-17T09:55:49.857Z,756
2017-12-17T09:56:30.092Z,900
2017-12-17T09:57:10.538Z,996
2017-12-17T09:57:52.385Z,1076
2017-12-17T09:58:32.911Z,1116
2017-12-17T09:59:13.751Z,1112
2017-12-17T09:59:54.132Z,1108
2017-12-17T10:00:34.650Z,1040
2017-12-17T10:01:15.357Z,1120
2017-12-17T10:01:55.764Z,1012
2017-12-17T10:02:37.198Z,948
2017-12-17T10:03:17.058Z,984
2017-12-17T10:03:57.476Z,1004
2017-12-17T10:49:41.228Z,708
2017-12-17T10:50:22.983Z,752
2017-12-17T10:51:03.382Z,832
2017-12-17T10:51:43.862Z,808
2017-12-17T10:52:26.732Z,844
2017-12-17T10:53:06.425Z,880
2017-12-17T10:56:28.633Z,692
2017-12-17T10:57:16.167Z,560
2017-12-17T10:57:56.573Z,460
2017-12-17T10:58:40.042Z,428
2017-12-17T10:59:20.380Z,448
2017-12-17T11:00:00.803Z,508
2017-12-17T11:00:41.162Z,584
2017-12-17T11:01:21.874Z,620
2017-12-17T11:02:03.550Z,656
2017-12-17T11:02:43.821Z,556
2017-12-17T11:03:24.600Z,472
2017-12-17T11:04:05.297Z,448
2017-12-17T11:04:47.533Z,452
2017-12-17T11:05:32.766Z,448
2017-12-17T11:06:13.889Z,444
2017-12-17T11:06:54.276Z,432
2017-12-17T11:07:35.745Z,396
2017-12-17T11:08:17.063Z,340
2017-12-17T11:08:57.513Z,280
2017-12-17T11:09:38.976Z,256
2017-12-17T11:10:19.113Z,240
2017-12-17T11:11:04.984Z,256
2017-12-17T11:11:45.999Z,276
2017-12-17T11:12:26.539Z,280
2017-12-17T11:13:07.033Z,288
2017-12-17T11:13:48.848Z,316
2017-12-17T11:14:29.379Z,356
2017-12-17T11:15:10.200Z,400
2017-12-17T11:15:50.761Z,440
2017-12-17T11:16:33.203Z,496
2017-12-17T11:17:16.821Z,540
2017-12-17T11:17:56.522Z,596
2017-12-17T11:18:37.034Z,636
2017-12-17T11:19:18.183Z,616
2017-12-17T11:19:59.872Z,580
2017-12-17T11:20:40.544Z,548
2017-12-17T11:21:21.026Z,512
2017-12-17T11:22:03.519Z,488
2017-12-17T11:22:45.272Z,468
2017-12-17T11:23:25.768Z,476
2017-12-17T11:24:09.355Z,532
2017-12-17T11:24:50.731Z,604
2017-12-17T11:25:32.058Z,656
2017-12-17T11:26:12.496Z,680
2017-12-17T11:26:55.769Z,688
2017-12-17T11:27:35.646Z,656
2017-12-17T11:28:16.974Z,652
2017-12-17T11:28:57.621Z,644
2017-12-17T11:29:38.170Z,648
2017-12-17T11:30:22.701Z,636
2017-12-17T11:31:06.348Z,644
2017-12-17T11:31:47.912Z,612
2017-12-17T11:32:28.943Z,584
2017-12-17T11:33:09.734Z,580
2017-12-17T11:33:51.359Z,552
2017-12-17T11:34:33.139Z,500
2017-12-17T11:35:13.272Z,476
2017-12-17T11:35:54.832Z,528
2017-12-17T11:36:34.703Z,608
2017-12-17T11:40:56.054Z,780
2017-12-17T11:53:09.805Z,724
2017-12-17T11:54:06.645Z,704
2017-12-17T11:56:00.265Z,788
2017-12-17T11:56:43.362Z,788
2017-12-17T11:57:24.402Z,748
2017-12-17T11:58:04.818Z,688
2017-12-17T11:58:46.138Z,632
2017-12-17T11:59:26.546Z,584
2017-12-17T12:00:06.875Z,504
2017-12-17T12:00:47.320Z,472
2017-12-17T12:01:27.690Z,448
2017-12-17T12:02:08.118Z,476
2017-12-17T12:02:48.637Z,460
2017-12-17T12:03:28.989Z,440
2017-12-17T12:04:09.379Z,428
2017-12-17T12:04:50.201Z,436
2017-12-17T12:05:30.801Z,468
2017-12-17T12:06:11.987Z,528
2017-12-17T12:06:53.008Z,556
2017-12-17T12:07:33.127Z,512
2017-12-17T12:08:13.574Z,484
2017-12-17T12:08:55.099Z,460
2017-12-17T12:09:36.094Z,424
2017-12-17T12:10:17.091Z,404
2017-12-17T12:10:58.302Z,388
2017-12-17T12:11:39.000Z,388
2017-12-17T12:12:24.813Z,404
2017-12-17T12:13:04.936Z,416
2017-12-17T12:13:45.359Z,408
2017-12-17T12:14:25.657Z,416
2017-12-17T12:15:06.855Z,412
2017-12-17T12:15:48.499Z,428
2017-12-17T12:16:29.728Z,444
2017-12-17T12:17:10.694Z,444
2017-12-17T12:17:51.055Z,412
2017-12-17T12:18:32.855Z,420
2017-12-17T12:19:15.572Z,484
2017-12-17T12:19:55.602Z,516
2017-12-17T12:20:36.044Z,516
2017-12-17T12:21:16.615Z,560
2017-12-17T12:21:58.663Z,588
2017-12-17T12:22:39.038Z,584
2017-12-17T12:23:19.405Z,584
2017-12-17T12:23:59.836Z,584
2017-12-17T12:24:41.236Z,620
2017-12-17T12:25:22.529Z,648
2017-12-17T12:26:02.677Z,620
2017-12-17T12:26:45.034Z,612
2017-12-17T12:27:24.416Z,588
2017-12-17T12:28:05.138Z,564
2017-12-17T12:28:45.520Z,560
2017-12-17T12:29:25.870Z,564
2017-12-17T12:30:11.490Z,588
2017-12-17T12:30:51.666Z,612
2017-12-17T12:31:32.174Z,632
2017-12-17T12:32:13.392Z,640
2017-12-17T12:32:54.232Z,640
2017-12-17T12:33:42.485Z,660
2017-12-17T12:35:41.393Z,668
2017-12-17T12:36:35.160Z,676
2017-12-17T12:37:30.249Z,704
2017-12-17T12:48:14.942Z,944
2017-12-17T12:48:57.289Z,996
2017-12-17T12:49:38.197Z,1028
2017-12-17T12:50:18.750Z,1040
2017-12-17T12:50:59.129Z,1032
2017-12-17T12:51:41.411Z,1044
2017-12-17T12:52:20.524Z,1032
2017-12-17T12:53:00.937Z,1004
2017-12-17T12:53:41.354Z,972
2017-12-17T12:54:21.995Z,952
2017-12-17T12:55:02.237Z,900
2017-12-17T12:55:43.372Z,932
2017-12-17T12:56:24.710Z,828
2017-12-17T12:57:07.640Z,828
2017-12-17T12:57:48.177Z,848
2017-12-17T12:58:28.543Z,840
2017-12-17T12:59:12.194Z,820
2017-12-17T13:00:01.030Z,812
2017-12-17T13:00:41.046Z,788
2017-12-17T13:03:23.412Z,604
2017-12-17T13:04:09.322Z,612
2017-12-17T13:07:42.884Z,528
2017-12-17T13:13:12.343Z,340
2017-12-17T13:14:05.327Z,320
2017-12-17T13:16:10.747Z,280
2017-12-17T13:16:58.154Z,268
2017-12-17T13:28:23.063Z,248
2017-12-17T13:37:38.600Z,236
2017-12-17T13:38:28.955Z,204
2017-12-17T13:39:14.857Z,200
2017-12-17T13:39:55.345Z,192
2017-12-17T13:40:36.044Z,196
2017-12-17T13:41:16.574Z,220
2017-12-17T13:41:56.853Z,236
2017-12-17T13:42:37.193Z,272
2017-12-17T13:43:17.605Z,312
2017-12-17T13:44:02.487Z,328
2017-12-17T13:44:47.153Z,344
2017-12-17T13:45:27.729Z,360
2017-12-17T13:46:08.570Z,368
2017-12-17T13:46:49.036Z,388
2017-12-17T13:47:29.427Z,396
2017-12-17T13:48:11.309Z,396
2017-12-17T13:48:51.718Z,372
2017-12-17T13:49:32.335Z,364
2017-12-17T13:50:12.962Z,348
2017-12-17T13:50:53.774Z,364
2017-12-17T13:51:35.692Z,384
2017-12-17T13:52:18.936Z,368
2017-12-17T13:53:02.690Z,364
2017-12-17T13:53:43.223Z,372
2017-12-17T13:54:23.609Z,384
2017-12-17T13:55:04.171Z,392
2017-12-17T13:55:44.542Z,368
2017-12-17T13:56:25.169Z,324
2017-12-17T13:57:05.747Z,312
2017-12-17T13:57:48.460Z,316
2017-12-17T13:58:29.303Z,284
2017-12-17T13:59:09.480Z,264
2017-12-17T13:59:50.563Z,248
2017-12-17T14:00:30.468Z,244
2017-12-17T14:01:10.884Z,252
2017-12-17T14:01:51.531Z,276
2017-12-17T14:02:33.546Z,320
2017-12-17T14:03:14.765Z,364
2017-12-17T14:03:59.106Z,396
2017-12-17T14:04:42.984Z,424
2017-12-17T14:05:23.643Z,500
2017-12-17T14:06:04.012Z,484
2017-12-17T14:06:45.156Z,448
2017-12-17T14:07:25.535Z,376
2017-12-17T14:08:06.048Z,376
2017-12-17T14:08:46.691Z,348
2017-12-17T14:09:28.588Z,344
2017-12-17T14:10:09.060Z,344
2017-12-17T14:10:49.456Z,336
2017-12-17T14:11:29.879Z,324
2017-12-17T14:12:10.297Z,336
2017-12-17T14:12:50.707Z,372
2017-12-17T14:13:31.148Z,376
2017-12-17T14:14:11.537Z,364
2017-12-17T14:14:52.015Z,344
2017-12-17T14:15:32.336Z,320
2017-12-17T14:16:12.751Z,288
2017-12-17T14:16:53.298Z,272
2017-12-17T14:17:34.177Z,260
2017-12-17T14:18:14.581Z,256
2017-12-17T14:18:55.019Z,252
2017-12-17T14:19:35.494Z,256
2017-12-17T14:20:16.749Z,264
2017-12-17T14:20:57.061Z,264
2017-12-17T14:21:40.551Z,272
2017-12-17T14:22:21.245Z,272
2017-12-17T14:23:01.668Z,276
2017-12-17T14:23:42.091Z,276
2017-12-17T14:24:23.636Z,276
2017-12-17T14:25:05.241Z,264
2017-12-17T14:25:45.618Z,268
2017-12-17T14:26:26.051Z,272
2017-12-17T14:27:06.421Z,284
2017-12-17T14:27:46.833Z,288
2017-12-17T14:28:27.210Z,284
2017-12-17T14:29:07.609Z,280
2017-12-17T14:29:48.032Z,272
2017-12-17T14:30:28.569Z,264
2017-12-17T14:31:08.893Z,248
2017-12-17T14:31:49.346Z,240
2017-12-17T14:32:29.748Z,236
2017-12-17T14:33:10.104Z,228
2017-12-17T14:33:50.506Z,228
2017-12-17T14:34:30.955Z,224
2017-12-17T14:35:11.678Z,228
2017-12-17T14:35:51.799Z,224
2017-12-17T14:36:32.155Z,216
2017-12-17T14:37:12.600Z,212
2017-12-17T14:37:52.970Z,200
2017-12-17T14:38:33.400Z,196
2017-12-17T14:39:13.821Z,188
2017-12-17T14:39:54.239Z,176
2017-12-17T14:40:34.649Z,156
2017-12-17T14:41:15.004Z,136
2017-12-17T14:41:55.451Z,124
2017-12-17T14:42:35.887Z,112
2017-12-17T14:43:16.260Z,108
2017-12-17T14:43:56.634Z,100
2017-12-17T14:44:37.074Z,104
2017-12-17T14:45:17.402Z,108
2017-12-17T14:45:57.836Z,108
2017-12-17T14:46:38.198Z,104
2017-12-17T14:47:18.662Z,104
2017-12-17T14:47:59.119Z,96
2017-12-17T14:48:39.444Z,92
2017-12-17T14:49:19.828Z,92
2017-12-17T14:50:02.222Z,88
2017-12-17T14:50:42.822Z,88
2017-12-17T14:51:23.404Z,84
2017-12-17T14:52:03.752Z,88
2017-12-17T14:52:44.124Z,88
2017-12-17T14:53:24.511Z,88
2017-12-17T14:54:04.916Z,84
2017-12-17T14:54:45.294Z,80
2017-12-17T14:55:25.719Z,76
2017-12-17T14:56:06.056Z,72
2017-12-17T14:56:46.472Z,72
2017-12-17T14:57:26.863Z,72
2017-12-17T14:58:07.250Z,72
2017-12-17T14:58:47.660Z,68
2017-12-17T14:59:28.026Z,60
2017-12-17T15:03:08.069Z,48
2017-12-17T15:03:49.024Z,48
2017-12-17T15:04:29.381Z,44
2017-12-17T15:05:09.768Z,44
2017-12-17T15:05:50.252Z,48
2017-12-17T15:06:30.612Z,44
2017-12-17T15:07:13.996Z,48
2017-12-17T15:07:54.374Z,48
2017-12-17T15:08:34.794Z,44
2017-12-17T15:09:15.171Z,40
2017-12-17T15:09:55.540Z,36
2017-12-17T15:10:35.906Z,32
2017-12-17T15:11:16.340Z,32
2017-12-17T15:11:56.707Z,32
2017-12-17T15:12:37.400Z,32
2017-12-17T15:13:17.801Z,32
2017-12-17T15:13:58.224Z,36
2017-12-17T15:14:38.583Z,36
2017-12-17T15:15:19.008Z,32
2017-12-17T15:15:59.403Z,32
2017-12-17T15:16:39.844Z,32
2017-12-17T15:18:58.636Z,20
2017-12-17T15:19:45.875Z,20
2017-12-17T15:20:33.631Z,20
2017-12-17T15:21:16.852Z,20
2017-12-17T15:21:57.270Z,20
2017-12-17T15:22:37.643Z,12
2017-12-17T15:23:18.035Z,16
2017-12-17T15:23:58.471Z,16
2017-12-17T15:24:38.813Z,16
2017-12-17T15:25:19.220Z,16
2017-12-17T15:25:59.586Z,16
2017-12-17T15:26:39.997Z,12
2017-12-17T15:27:20.419Z,12
2017-12-17T15:28:00.803Z,16
2017-12-17T15:28:41.233Z,16
2017-12-17T15:29:21.574Z,12
2017-12-17T15:30:01.983Z,12
2017-12-17T15:30:42.380Z,12
2017-12-17T15:31:22.797Z,8
2017-12-17T15:32:03.164Z,12
2017-12-17T15:32:43.563Z,12
2017-12-17T15:33:23.949Z,8
2017-12-17T15:34:04.385Z,8
2017-12-17T15:34:44.770Z,8
2017-12-17T15:35:25.135Z,8
2017-12-17T15:36:05.555Z,4
2017-12-17T15:36:45.921Z,4
2017-12-17T15:37:26.303Z,4
2017-12-17T15:38:06.740Z,4
2017-12-17T15:38:47.084Z,4
2017-12-17T15:39:27.476Z,8
2017-12-17T15:40:07.859Z,4
2017-12-17T15:40:48.249Z,4
2017-12-17T15:41:28.628Z,4
2017-12-17T15:42:09.012Z,0
2017-12-17T15:42:49.404Z,4
2017-12-17T15:43:30.140Z,4
2017-12-17T15:44:11.314Z,4
2017-12-17T15:44:56.393Z,0
2017-12-17T15:45:38.205Z,0
2017-12-17T15:46:19.235Z,0
2017-12-17T15:46:59.379Z,0
2017-12-17T15:47:40.453Z,0
2017-12-17T15:48:20.853Z,0
2017-12-17T15:49:01.321Z,0
2017-12-17T15:49:41.638Z,0
2017-12-17T15:50:22.021Z,0
2017-12-17T15:51:02.427Z,0
2017-12-17T15:51:42.818Z,0
2017-12-17T15:52:23.233Z,0
2017-12-17T15:53:04.129Z,0
2017-12-17T15:53:44.422Z,0
2017-12-17T15:54:24.737Z,0
2017-12-17T15:55:05.194Z,0
2017-12-17T15:55:46.540Z,0
2017-12-17T15:56:26.936Z,0
2017-12-17T15:57:07.378Z,0
2017-12-17T15:57:47.932Z,0
2017-12-17T15:58:28.152Z,0
2017-12-17T15:59:08.644Z,0
2017-12-17T15:59:48.969Z,0
2017-12-17T16:00:29.516Z,0
2017-12-17T16:01:09.898Z,0
2017-12-17T16:01:50.246Z,0
2017-12-17T16:02:30.650Z,0
2017-12-17T16:03:12.081Z,0
2017-12-17T16:03:52.218Z,0
2017-12-17T16:54:55.946Z,0
2017-12-17T16:55:36.333Z,0
2017-12-17T16:56:16.706Z,0
2017-12-17T16:56:57.134Z,0
2017-12-17T16:57:37.523Z,0
2017-12-17T16:58:20.416Z,0
2017-12-17T16:59:00.770Z,0
2017-12-17T16:59:41.149Z,0
2017-12-17T17:00:21.808Z,0
2017-12-17T17:01:01.992Z,0
2017-12-17T17:01:42.412Z,0
2017-12-17T17:02:22.834Z,0
2017-12-17T17:03:03.196Z,0
2017-12-17T17:03:43.592Z,0
2017-12-17T17:04:24.043Z,0
2017-12-17T17:05:04.487Z,0
2017-12-17T17:05:44.818Z,0
2017-12-17T17:06:25.197Z,0